Time;durP1;ratioP1;P1;durP2;ratioP2;P2;SDS_P1;SDS_P2;PMS_P1;PMS_P2;Temp;Humidity;BMP_temperature;BMP_pressure;BME280_temperature;BME280_humidity;BME280_pressure;Samples;Min_cycle;Max_cycle;Signal;HPM_P1;HPM_P2
2022/05/26 00:01:04;;;;;;;0.60;0.60;;;15.60;99.90;;;;;;4994835;28;20219;-62
2022/05/26 00:03:32;;;;;;;1.90;1.70;;;15.60;99.90;;;;;;4994869;28;20240;-62
2022/05/26 00:06:00;;;;;;;0.97;0.83;;;15.50;99.90;;;;;;4994519;28;20225;-61
2022/05/26 00:08:27;;;;;;;1.17;0.67;;;15.50;99.90;;;;;;4994399;28;20206;-61
2022/05/26 00:10:54;;;;;;;1.20;1.20;;;15.50;99.90;;;;;;4994176;28;20272;-62
2022/05/26 00:13:21;;;;;;;0.97;0.97;;;15.50;99.90;;;;;;4994437;28;20217;-62
2022/05/26 00:15:48;;;;;;;0.60;0.60;;;15.50;99.90;;;;;;4994366;28;20224;-62
2022/05/26 00:18:16;;;;;;;0.67;0.67;;;15.50;99.90;;;;;;4993914;28;20202;-61
2022/05/26 00:20:43;;;;;;;0.53;0.50;;;15.50;99.90;;;;;;4994336;28;20561;-62
2022/05/26 00:23:10;;;;;;;0.30;0.30;;;15.50;99.90;;;;;;4994442;28;20245;-61
2022/05/26 00:25:37;;;;;;;0.60;0.60;;;15.50;99.90;;;;;;4994201;28;20523;-62
2022/05/26 00:28:05;;;;;;;0.80;0.80;;;15.50;99.90;;;;;;4994208;28;20225;-63
2022/05/26 00:30:32;;;;;;;0.87;0.67;;;15.50;99.90;;;;;;4994145;28;20203;-62
2022/05/26 00:32:59;;;;;;;0.93;0.93;;;15.50;99.90;;;;;;4994037;28;20211;-61
2022/05/26 00:35:28;;;;;;;111.67;8.23;;;15.40;99.90;;;;;;4993915;28;20216;-62
2022/05/26 00:37:55;;;;;;;0.47;0.47;;;15.40;99.90;;;;;;4994254;28;20300;-62
2022/05/26 00:40:22;;;;;;;1.10;0.83;;;15.50;99.90;;;;;;4994015;28;20199;-62
2022/05/26 00:42:51;;;;;;;1.00;1.00;;;15.50;99.90;;;;;;4994024;28;20209;-61
2022/05/26 00:45:18;;;;;;;0.77;0.77;;;15.50;99.90;;;;;;4993854;28;20241;-61
2022/05/26 00:47:47;;;;;;;1.40;0.50;;;15.40;99.90;;;;;;4993852;28;20205;-61
2022/05/26 00:50:21;;;;;;;0.97;0.80;;;15.40;99.90;;;;;;4994016;28;20209;-62
2022/05/26 00:52:53;;;;;;;1.17;0.70;;;15.40;99.90;;;;;;4993672;28;20186;-62
2022/05/26 00:55:25;;;;;;;0.73;0.73;;;15.40;99.90;;;;;;4993691;28;20601;-62
2022/05/26 00:57:55;;;;;;;2.67;1.73;;;15.40;99.90;;;;;;4993541;28;20182;-62
2022/05/26 01:00:26;;;;;;;0.90;0.90;;;15.40;99.90;;;;;;4993929;28;20190;-62
2022/05/26 01:03:03;;;;;;;0.60;0.60;;;15.40;99.90;;;;;;4993660;28;20185;-62
2022/05/26 01:05:38;;;;;;;0.70;0.70;;;15.40;99.90;;;;;;4993415;28;20639;-62
2022/05/26 01:08:11;;;;;;;1.90;0.80;;;15.50;99.90;;;;;;4993596;28;20193;-62
2022/05/26 01:10:38;;;;;;;0.87;0.87;;;15.40;99.90;;;;;;4993242;28;20698;-62
2022/05/26 01:13:05;;;;;;;1.43;0.33;;;15.40;99.90;;;;;;4993458;28;20220;-62
2022/05/26 01:15:37;;;;;;;1.97;1.63;;;15.30;99.90;;;;;;4993342;28;20213;-61
2022/05/26 01:18:11;;;;;;;1.70;0.83;;;15.30;99.90;;;;;;4993220;28;20198;-62
2022/05/26 01:20:53;;;;;;;0.50;0.50;;;15.30;99.90;;;;;;4993084;28;20620;-61
2022/05/26 01:24:02;;;;;;;0.40;0.40;;;15.30;99.90;;;;;;4993637;28;20201;-61
2022/05/26 01:26:49;;;;;;;0.47;0.47;;;15.20;99.90;;;;;;4978173;28;20267;-62
2022/05/26 01:29:57;;;;;;;0.60;0.60;;;15.10;99.90;;;;;;4993322;28;20190;-61
2022/05/26 01:32:32;;;;;;;0.70;0.70;;;15.00;99.90;;;;;;4993236;28;20186;-62
2022/05/26 01:35:09;;;;;;;1.40;0.47;;;14.90;99.90;;;;;;4993231;28;20210;-61
2022/05/26 01:37:44;;;;;;;0.27;0.27;;;14.90;99.90;;;;;;4993294;28;20189;-61
2022/05/26 01:40:20;;;;;;;0.60;0.60;;;14.90;99.90;;;;;;4993182;28;20189;-62
2022/05/26 01:42:54;;;;;;;0.83;0.50;;;14.90;99.90;;;;;;4993197;28;20544;-62
2022/05/26 01:45:33;;;;;;;0.63;0.63;;;15.00;99.90;;;;;;4993211;28;20213;-62
2022/05/26 01:48:07;;;;;;;0.47;0.43;;;15.00;99.90;;;;;;4993020;28;20248;-61
2022/05/26 01:50:42;;;;;;;0.93;0.60;;;14.90;99.90;;;;;;4993047;28;20186;-62
2022/05/26 01:53:18;;;;;;;0.57;0.57;;;14.90;99.90;;;;;;4993136;28;20182;-62
2022/05/26 01:55:50;;;;;;;0.50;0.50;;;14.90;99.90;;;;;;4992978;28;20583;-62
2022/05/26 01:58:22;;;;;;;0.20;0.20;;;14.90;99.90;;;;;;4993066;28;20197;-62
2022/05/26 02:00:52;;;;;;;1.20;1.20;;;14.90;99.90;;;;;;4994169;28;20199;-63
2022/05/26 02:03:23;;;;;;;1.00;0.90;;;14.90;99.90;;;;;;4993294;28;20276;-62
2022/05/26 02:05:53;;;;;;;0.40;0.40;;;15.00;99.90;;;;;;4992736;28;20199;-61
2022/05/26 02:08:24;;;;;;;0.60;0.60;;;14.90;99.90;;;;;;4992621;28;20210;-62
2022/05/26 02:10:55;;;;;;;1.17;1.07;;;15.00;99.90;;;;;;4992573;28;20222;-63
2022/05/26 02:13:26;;;;;;;0.30;0.30;;;15.00;99.90;;;;;;4995191;28;20182;-62
2022/05/26 02:15:57;;;;;;;0.30;0.30;;;15.00;99.90;;;;;;4996672;28;20210;-62
2022/05/26 02:18:31;;;;;;;0.63;0.63;;;15.00;99.90;;;;;;4996541;28;20594;-62
2022/05/26 02:21:01;;;;;;;0.57;0.57;;;15.00;99.90;;;;;;4996592;28;20321;-62
2022/05/26 02:23:35;;;;;;;0.70;0.57;;;15.00;99.90;;;;;;4996421;28;20178;-63
2022/05/26 02:26:04;;;;;;;0.40;0.40;;;15.10;99.90;;;;;;4996474;28;20189;-62
2022/05/26 02:29:51;;;;;;;1.10;0.77;;;15.00;99.90;;;;;;4996404;28;20542;-62
2022/05/26 02:31:27;;;;;;;1.50;0.40;;;15.10;99.90;;;;;;4996026;28;20679;-62
2022/05/26 02:33:58;;;;;;;0.80;0.80;;;15.10;99.90;;;;;;4996479;28;20269;-62
2022/05/26 02:36:28;;;;;;;0.97;0.97;;;15.10;99.90;;;;;;4996194;28;20214;-63
2022/05/26 02:38:56;;;;;;;1.27;1.13;;;15.00;99.90;;;;;;4996346;28;20194;-63
2022/05/26 02:41:24;;;;;;;0.90;0.70;;;15.10;99.90;;;;;;4995944;28;20301;-62
2022/05/26 02:43:52;;;;;;;1.73;0.60;;;15.10;99.90;;;;;;4996387;28;20216;-62
2022/05/26 02:46:31;;;;;;;1.07;0.53;;;15.00;99.90;;;;;;4995767;28;20198;-63
2022/05/26 02:49:14;;;;;;;1.17;1.07;;;15.10;99.90;;;;;;4996007;28;20190;-62
2022/05/26 02:51:44;;;;;;;0.83;0.80;;;15.00;99.90;;;;;;4995935;28;20548;-62
2022/05/26 02:54:21;;;;;;;2.47;0.80;;;15.00;99.90;;;;;;4995995;28;20190;-62
2022/05/26 02:57:01;;;;;;;0.60;0.60;;;15.00;99.90;;;;;;4996070;28;20209;-62
2022/05/26 02:59:34;;;;;;;1.07;0.97;;;15.00;99.90;;;;;;4995929;28;20204;-62
2022/05/26 03:02:06;;;;;;;5.00;1.00;;;15.00;99.90;;;;;;4995879;28;20190;-62
2022/05/26 03:04:39;;;;;;;1.37;1.27;;;14.90;99.90;;;;;;4995736;28;20204;-61
2022/05/26 03:07:10;;;;;;;2.20;1.33;;;15.00;99.90;;;;;;4996665;28;20178;-62
2022/05/26 03:09:39;;;;;;;1.43;0.70;;;14.90;99.90;;;;;;4995550;28;20252;-62
2022/05/26 03:12:20;;;;;;;3.63;1.27;;;15.00;99.90;;;;;;4995620;28;20206;-62
2022/05/26 03:14:47;;;;;;;0.57;0.40;;;15.00;99.90;;;;;;4995812;28;20200;-62
2022/05/26 03:17:13;;;;;;;2.37;0.97;;;15.00;99.90;;;;;;4995376;28;20218;-62
2022/05/26 03:19:42;;;;;;;0.50;0.50;;;15.00;99.90;;;;;;4995405;28;20256;-63
2022/05/26 03:22:09;;;;;;;6.00;1.43;;;15.00;99.90;;;;;;4995422;28;20202;-62
2022/05/26 03:24:36;;;;;;;1.43;1.13;;;15.00;99.90;;;;;;4995226;28;20588;-62
2022/05/26 03:27:03;;;;;;;1.83;0.80;;;15.00;99.90;;;;;;4995043;28;20681;-63
2022/05/26 03:29:30;;;;;;;2.83;1.37;;;15.00;99.90;;;;;;4995855;28;20313;-64
2022/05/26 03:31:57;;;;;;;5.80;1.97;;;15.00;99.90;;;;;;4995227;28;20679;-62
2022/05/26 03:42:40;;;;;;;2.47;1.63;;;15.00;99.90;;;;;;4995494;28;20316;-63
2022/05/26 03:45:09;;;;;;;1.40;0.77;;;15.00;99.90;;;;;;4995133;28;20205;-62
2022/05/26 03:47:36;;;;;;;1.63;1.10;;;15.00;99.90;;;;;;4995601;28;20208;-62
2022/05/26 03:50:03;;;;;;;1.47;0.97;;;15.00;99.90;;;;;;4995377;28;20222;-63
2022/05/26 03:52:31;;;;;;;3.90;0.93;;;14.90;99.90;;;;;;4995153;28;20269;-62
2022/05/26 03:54:59;;;;;;;0.57;0.57;;;14.90;99.90;;;;;;4995404;28;20197;-64
2022/05/26 03:57:27;;;;;;;2.30;1.73;;;14.90;99.90;;;;;;4995170;28;20271;-63
2022/05/26 03:59:54;;;;;;;3.03;1.60;;;14.90;99.90;;;;;;4995046;28;20260;-62
2022/05/26 04:02:22;;;;;;;6.33;1.33;;;14.90;99.90;;;;;;4995310;28;20197;-62
2022/05/26 04:04:49;;;;;;;2.87;1.57;;;14.90;99.90;;;;;;4994985;28;20223;-62
2022/05/26 04:07:15;;;;;;;5.67;1.60;;;14.80;99.90;;;;;;4994421;28;20194;-62
2022/05/26 04:09:44;;;;;;;1.83;1.10;;;14.80;99.90;;;;;;4994784;28;20299;-63
2022/05/26 04:12:12;;;;;;;2.03;1.87;;;14.80;99.90;;;;;;4994784;28;20233;-63
2022/05/26 04:14:40;;;;;;;1.10;0.83;;;14.80;99.90;;;;;;4994333;28;20308;-63
2022/05/26 04:17:06;;;;;;;2.70;1.53;;;14.80;99.90;;;;;;4994516;28;20221;-62
2022/05/26 04:19:35;;;;;;;3.93;2.07;;;14.80;99.90;;;;;;4994747;28;20546;-63
2022/05/26 04:22:17;;;;;;;5.27;1.10;;;14.80;99.90;;;;;;4994526;28;20201;-62
2022/05/26 04:24:47;;;;;;;2.57;1.50;;;14.90;99.90;;;;;;4994542;28;20193;-63
2022/05/26 04:27:15;;;;;;;4.27;1.90;;;14.90;99.90;;;;;;4994397;28;20198;-63
2022/05/26 04:29:42;;;;;;;2.93;1.63;;;14.90;99.90;;;;;;4994733;28;20201;-64
2022/05/26 04:32:10;;;;;;;1.33;1.30;;;14.90;99.90;;;;;;4994595;28;20671;-62
2022/05/26 04:34:37;;;;;;;2.03;1.83;;;14.90;99.90;;;;;;4994905;28;20200;-62
2022/05/26 04:37:05;;;;;;;2.73;1.27;;;14.90;99.90;;;;;;4994920;28;20222;-62
2022/05/26 04:39:32;;;;;;;4.60;3.03;;;14.90;99.90;;;;;;4995724;28;20217;-63
2022/05/26 04:42:02;;;;;;;4.50;2.50;;;14.90;99.90;;;;;;4994382;28;20193;-62
2022/05/26 04:44:32;;;;;;;0.87;0.70;;;14.90;99.90;;;;;;4993760;28;20727;-63
2022/05/26 04:46:59;;;;;;;1.27;1.20;;;15.00;99.90;;;;;;4993792;28;20613;-62
2022/05/26 04:49:27;;;;;;;7.80;2.53;;;15.00;99.90;;;;;;4994088;28;20564;-66
2022/05/26 04:51:55;;;;;;;11.07;3.33;;;15.00;99.90;;;;;;4993851;28;20613;-62
2022/05/26 04:54:22;;;;;;;3.57;2.17;;;15.00;99.90;;;;;;4994013;28;20208;-63
2022/05/26 04:56:49;;;;;;;3.13;1.53;;;15.00;99.90;;;;;;4995202;28;20603;-62
2022/05/26 04:59:17;;;;;;;0.97;0.90;;;15.00;99.90;;;;;;4995101;28;20209;-62
2022/05/26 05:01:44;;;;;;;4.73;1.23;;;15.00;99.90;;;;;;4994676;28;20201;-62
2022/05/26 05:04:11;;;;;;;5.67;1.70;;;15.10;99.90;;;;;;4993846;28;20197;-61
2022/05/26 05:06:38;;;;;;;4.50;1.80;;;15.20;99.90;;;;;;4993725;28;20200;-60
2022/05/26 05:09:05;;;;;;;0.70;0.70;;;15.20;99.90;;;;;;4993415;28;20707;-61
2022/05/26 05:11:33;;;;;;;1.97;1.83;;;15.20;99.90;;;;;;4993584;28;20210;-62
2022/05/26 05:14:02;;;;;;;1.90;1.77;;;15.20;99.90;;;;;;4993491;28;20207;-62
2022/05/26 05:16:34;;;;;;;3.50;1.93;;;15.30;99.90;;;;;;4993935;28;20259;-62
2022/05/26 05:19:02;;;;;;;0.57;0.37;;;15.20;99.90;;;;;;4993417;28;20182;-61
2022/05/26 05:21:34;;;;;;;2.00;1.17;;;15.30;99.90;;;;;;4993548;28;20221;-62
2022/05/26 05:24:05;;;;;;;1.67;1.57;;;15.30;99.90;;;;;;4994128;28;20193;-62
2022/05/26 05:26:35;;;;;;;3.23;2.80;;;15.30;99.90;;;;;;4994196;28;20182;-62
2022/05/26 05:29:06;;;;;;;2.23;2.03;;;15.30;99.90;;;;;;4994184;28;20557;-62
2022/05/26 05:31:40;;;;;;;5.73;2.03;;;15.50;99.90;;;;;;4994000;28;20186;-61
2022/05/26 05:34:14;;;;;;;3.30;2.00;;;15.60;99.90;;;;;;4993213;28;20266;-61
2022/05/26 05:36:41;;;;;;;3.60;2.80;;;15.70;99.90;;;;;;4993478;28;20202;-61
2022/05/26 05:39:09;;;;;;;1.50;0.87;;;15.70;99.90;;;;;;4993374;28;20205;-62
2022/05/26 05:41:37;;;;;;;6.60;6.13;;;15.80;99.90;;;;;;4993483;28;20195;-62
2022/05/26 05:44:05;;;;;;;3.37;1.90;;;15.80;99.90;;;;;;4994076;28;20226;-61
2022/05/26 05:46:53;;;;;;;2.47;2.00;;;15.80;99.90;;;;;;4993631;28;20244;-62
2022/05/26 05:49:22;;;;;;;3.27;2.20;;;15.70;99.90;;;;;;4997184;28;20224;-63
2022/05/26 05:51:50;;;;;;;2.83;2.13;;;15.70;99.90;;;;;;4997380;28;20675;-62
2022/05/26 05:54:18;;;;;;;7.43;3.23;;;15.60;99.90;;;;;;4997999;28;20225;-62
2022/05/26 05:56:45;;;;;;;6.63;1.50;;;15.70;99.90;;;;;;4997502;28;20221;-62
2022/05/26 05:59:13;;;;;;;8.77;2.53;;;15.70;99.90;;;;;;4997634;28;20233;-63
2022/05/26 06:01:41;;;;;;;4.67;2.53;;;15.80;99.90;;;;;;4998246;28;20684;-63
2022/05/26 06:04:08;;;;;;;4.27;2.17;;;15.80;99.90;;;;;;4998469;28;20620;-61
2022/05/26 06:06:39;;;;;;;1.17;1.07;;;16.00;99.90;;;;;;4998478;28;20198;-64
2022/05/26 06:09:06;;;;;;;2.67;0.87;;;16.10;99.90;;;;;;4997533;28;20236;-63
2022/05/26 06:11:33;;;;;;;5.47;3.50;;;16.20;99.90;;;;;;4997778;28;20216;-63
2022/05/26 06:14:00;;;;;;;1.93;1.73;;;16.30;99.90;;;;;;4997089;28;20208;-63
2022/05/26 06:16:29;;;;;;;6.10;2.00;;;16.40;99.90;;;;;;4996859;28;20211;-62
2022/05/26 06:18:56;;;;;;;1.47;1.37;;;16.40;99.90;;;;;;4996820;28;20663;-62
2022/05/26 06:21:24;;;;;;;7.70;3.67;;;16.30;99.90;;;;;;4997344;28;20214;-62
2022/05/26 06:23:56;;;;;;;3.57;1.47;;;16.20;99.90;;;;;;4998445;28;20207;-62
2022/05/26 06:26:24;;;;;;;1.77;1.67;;;16.40;99.90;;;;;;4998114;28;20197;-64
2022/05/26 06:31:35;;;;;;;1.30;1.20;;;16.70;99.90;;;;;;4998977;28;20183;-63
2022/05/26 06:39:34;;;;;;;2.33;2.13;;;16.50;99.90;;;;;;4998658;28;20185;-62
2022/05/26 06:42:07;;;;;;;3.40;1.80;;;16.40;99.90;;;;;;4996642;28;20212;-62
2022/05/26 06:44:38;;;;;;;3.30;1.90;;;16.60;99.90;;;;;;4996127;28;20621;-62
2022/05/26 06:47:07;;;;;;;4.83;2.33;;;16.80;99.90;;;;;;4996276;28;20250;-62
2022/05/26 06:49:35;;;;;;;7.33;1.87;;;16.80;99.90;;;;;;4996494;28;20628;-69
2022/05/26 06:52:03;;;;;;;3.03;1.97;;;16.50;99.90;;;;;;4997346;28;20192;-61
2022/05/26 06:54:33;;;;;;;3.40;2.30;;;17.00;99.90;;;;;;4998106;28;20211;-61
2022/05/26 06:57:00;;;;;;;8.30;4.30;;;17.30;99.90;;;;;;4996559;28;20224;-61
2022/05/26 06:59:28;;;;;;;6.67;3.30;;;17.80;99.90;;;;;;4996432;28;20201;-61
2022/05/26 07:01:55;;;;;;;5.37;3.13;;;17.90;99.90;;;;;;4996865;28;20537;-61
2022/05/26 07:04:22;;;;;;;8.50;4.97;;;18.60;99.90;;;;;;4995969;28;20202;-61
2022/05/26 07:06:51;;;;;;;3.83;2.93;;;18.50;99.90;;;;;;4996189;28;20193;-61
2022/05/26 07:09:18;;;;;;;4.40;2.83;;;18.30;99.90;;;;;;4995521;28;20252;-61
2022/05/26 07:11:47;;;;;;;2.03;1.73;;;17.90;99.90;;;;;;4995914;28;20205;-61
2022/05/26 07:14:14;;;;;;;6.73;3.60;;;17.80;99.90;;;;;;4995664;28;20205;-61
2022/05/26 07:16:41;;;;;;;3.17;2.83;;;17.50;99.90;;;;;;4995731;28;20560;-61
2022/05/26 07:19:08;;;;;;;3.37;2.67;;;17.30;99.90;;;;;;4997125;28;20233;-62
2022/05/26 07:21:35;;;;;;;1.37;1.13;;;17.30;99.90;;;;;;4995607;28;20199;-61
2022/05/26 07:24:02;;;;;;;2.93;1.70;;;17.60;99.90;;;;;;4996155;28;20201;-62
2022/05/26 07:26:32;;;;;;;3.80;0.87;;;17.80;99.90;;;;;;4996689;28;20209;-63
2022/05/26 07:29:00;;;;;;;2.80;1.40;;;18.00;99.90;;;;;;4995338;28;20722;-62
2022/05/26 07:31:28;;;;;;;4.47;2.60;;;17.80;99.90;;;;;;4995472;28;20205;-63
2022/05/26 07:33:55;;;;;;;5.83;3.63;;;17.50;99.90;;;;;;4995538;28;20208;-63
2022/05/26 07:42:00;;;;;;;2.33;2.10;;;16.80;99.90;;;;;;4935124;29;20584;-62
2022/05/26 07:44:30;;;;;;;2.60;2.20;;;16.90;99.90;;;;;;4934659;29;20213;-63
2022/05/26 07:46:56;;;;;;;6.80;2.87;;;16.80;99.90;;;;;;4934871;29;20273;-63
2022/05/26 07:49:24;;;;;;;2.47;1.90;;;16.70;99.90;;;;;;4944558;28;20216;-62
2022/05/26 07:51:51;;;;;;;8.27;2.00;;;17.10;99.90;;;;;;4953084;29;20209;-63
2022/05/26 07:54:18;;;;;;;4.10;2.33;;;17.30;99.90;;;;;;4953937;29;20214;-62
2022/05/26 07:56:45;;;;;;;4.93;3.07;;;17.40;99.90;;;;;;4953621;29;20214;-62
2022/05/26 07:59:12;;;;;;;1.63;1.53;;;17.60;99.90;;;;;;4954006;29;20213;-63
2022/05/26 08:01:40;;;;;;;6.30;1.60;;;18.20;99.90;;;;;;4955172;29;20209;-62
2022/05/26 08:04:08;;;;;;;1.70;1.60;;;18.40;99.90;;;;;;4954406;29;20606;-62
2022/05/26 08:06:36;;;;;;;3.13;2.30;;;18.40;99.90;;;;;;4953642;29;20206;-64
2022/05/26 08:09:03;;;;;;;8.30;2.80;;;19.00;99.90;;;;;;4953247;29;20706;-62
2022/05/26 08:11:30;;;;;;;2.83;1.53;;;19.40;99.90;;;;;;4952760;28;20265;-62
2022/05/26 08:13:57;;;;;;;4.70;2.70;;;18.90;99.90;;;;;;4953527;29;20212;-62
2022/05/26 08:16:24;;;;;;;1.47;1.37;;;18.70;99.90;;;;;;4998470;28;20208;-62
2022/05/26 08:18:52;;;;;;;7.80;1.57;;;18.40;99.90;;;;;;5014332;28;20217;-62
2022/05/26 08:21:19;;;;;;;1.47;1.20;;;18.50;99.90;;;;;;5014460;28;20556;-62
2022/05/26 08:23:46;;;;;;;6.53;3.30;;;18.50;99.90;;;;;;5014598;28;20590;-62
2022/05/26 08:26:14;;;;;;;14.67;3.30;;;19.00;99.90;;;;;;5014166;28;20394;-62
2022/05/26 08:28:42;;;;;;;2.50;1.90;;;18.40;99.90;;;;;;5015328;28;20664;-62
2022/05/26 08:31:13;;;;;;;3.13;2.00;;;18.10;99.90;;;;;;5014021;28;20220;-63
2022/05/26 08:33:40;;;;;;;2.47;1.23;;;18.40;99.90;;;;;;5011395;28;20212;-61
2022/05/26 08:36:11;;;;;;;1.80;1.40;;;18.80;99.90;;;;;;5013554;28;20259;-62
2022/05/26 08:38:39;;;;;;;0.93;0.93;;;19.80;99.90;;;;;;5013706;28;20227;-61
2022/05/26 08:41:07;;;;;;;0.15;0.15;;;20.00;99.90;;;;;;5013957;28;20252;-62
2022/05/26 08:43:39;;;;;;;1.63;1.53;;;19.80;99.90;;;;;;5013827;28;20215;-62
2022/05/26 08:46:08;;;;;;;1.47;1.37;;;19.40;99.90;;;;;;5013773;28;20288;-62
2022/05/26 08:48:43;;;;;;;2.35;2.13;;;19.70;99.90;;;;;;5013728;28;20193;-62
2022/05/26 08:51:17;;;;;;;1.80;1.50;;;19.50;99.90;;;;;;5013433;28;20265;-62
2022/05/26 08:53:44;;;;;;;2.40;2.27;;;19.50;99.90;;;;;;5013517;28;20217;-62
2022/05/26 08:56:15;;;;;;;1.20;1.10;;;19.40;99.90;;;;;;5013266;28;20214;-62
2022/05/26 08:58:47;;;;;;;2.63;1.47;;;18.80;99.90;;;;;;4995782;28;20213;-62
2022/05/26 09:01:19;;;;;;;6.17;3.13;;;19.70;99.90;;;;;;5012329;28;20209;-62
2022/05/26 09:03:45;;;;;;;2.43;1.73;;;19.50;99.90;;;;;;5013255;28;20178;-62
2022/05/26 09:06:17;;;;;;;1.30;1.20;;;18.60;99.90;;;;;;5012977;28;20201;-62
2022/05/26 09:14:23;;;;;;;6.83;2.83;;;20.40;99.90;;;;;;4993984;28;20186;-63
2022/05/26 09:16:55;;;;;;;3.65;2.47;;;20.10;90.60;;;;;;4993560;28;20229;-63
2022/05/26 09:19:23;;;;;;;4.00;1.10;;;19.40;63.10;;;;;;4992901;28;20185;-62
2022/05/26 09:21:53;;;;;;;2.42;1.67;;;19.90;66.30;;;;;;4993047;28;20242;-63
2022/05/26 09:24:25;;;;;;;1.17;1.17;;;20.40;34.90;;;;;;4993607;28;20203;-62
2022/05/26 09:26:57;;;;;;;1.95;1.60;;;20.90;11.00;;;;;;4993321;28;20205;-62
2022/05/26 09:29:27;;;;;;;3.45;2.25;;;21.30;1.20;;;;;;4992907;28;20540;-63
2022/05/26 09:31:56;;;;;;;3.55;1.20;;;20.40;1.00;;;;;;4993857;28;20213;-63
2022/05/26 09:34:25;;;;;;;10.98;2.85;;;19.70;1.00;;;;;;4992767;28;20203;-62
2022/05/26 09:36:56;;;;;;;1.23;1.13;;;19.50;4.40;;;;;;4993355;28;20198;-63
2022/05/26 09:39:25;;;;;;;2.50;1.30;;;20.50;4.80;;;;;;4993306;28;20216;-63
2022/05/26 09:41:55;;;;;;;3.45;1.33;;;19.90;1.00;;;;;;4993460;28;20244;-63
2022/05/26 09:44:49;;;;;;;1.53;1.23;;;19.40;1.00;;;;;;4992563;28;20190;-63
2022/05/26 09:47:27;;;;;;;4.93;1.23;;;19.90;1.00;;;;;;4989121;28;20721;-63
2022/05/26 09:49:58;;;;;;;5.00;1.30;;;20.90;1.00;;;;;;4993409;28;20238;-64
2022/05/26 09:52:29;;;;;;;2.80;0.73;;;20.40;1.00;;;;;;4992760;28;20646;-64
2022/05/26 09:55:10;;;;;;;4.80;1.40;;;19.70;1.00;;;;;;4993092;28;20263;-65
2022/05/26 09:57:37;;;;;;;1.60;1.50;;;19.70;1.00;;;;;;4991693;28;20235;-63
2022/05/26 10:00:15;;;;;;;1.40;1.30;;;19.30;2.00;;;;;;4992284;28;20264;-62
2022/05/26 10:02:42;;;;;;;3.00;1.87;;;20.10;1.00;;;;;;4993079;28;20191;-60
2022/05/26 10:05:20;;;;;;;1.13;0.90;;;21.10;1.00;;;;;;4992869;28;20528;-61
2022/05/26 10:08:02;;;;;;;1.65;1.35;;;20.00;1.00;;;;;;4993331;28;20181;-61
2022/05/26 10:10:33;;;;;;;3.77;2.03;;;20.00;1.00;;;;;;4992173;28;20700;-61
2022/05/26 10:13:25;;;;;;;1.50;1.10;;;20.20;1.00;;;;;;4993213;28;20212;-62
2022/05/26 10:16:04;;;;;;;1.67;1.15;;;21.00;1.00;;;;;;4993467;28;20204;-62
2022/05/26 10:18:45;;;;;;;2.35;0.80;;;20.90;1.00;;;;;;4993202;28;20252;-62
2022/05/26 10:21:23;;;;;;;1.67;1.58;;;20.50;1.00;;;;;;4992064;28;20647;-62
2022/05/26 10:24:12;;;;;;;2.33;1.63;;;20.10;1.00;;;;;;4991987;28;20185;-63
2022/05/26 10:26:49;;;;;;;0.50;0.50;;;20.20;1.00;;;;;;4992511;28;20244;-62
2022/05/26 10:29:38;;;;;;;4.20;1.55;;;21.80;1.00;;;;;;4992619;28;20186;-62
2022/05/26 10:32:18;;;;;;;1.30;1.05;;;21.70;1.00;;;;;;4990248;28;20272;-62
2022/05/26 10:35:07;;;;;;;2.13;1.30;;;21.40;1.00;;;;;;4993725;28;20635;-62
2022/05/26 10:37:47;;;;;;;4.30;1.38;;;20.70;1.00;;;;;;4995709;28;20197;-62
2022/05/26 10:40:30;;;;;;;1.35;1.35;;;20.00;1.00;;;;;;4996185;28;20296;-63
2022/05/26 10:43:01;;;;;;;1.77;1.67;;;20.70;1.00;;;;;;4995897;28;20650;-62
2022/05/26 10:45:34;;;;;;;4.15;1.67;;;21.50;1.00;;;;;;4996029;28;20201;-63
2022/05/26 10:48:07;;;;;;;1.48;1.40;;;21.50;1.00;;;;;;4996114;28;20182;-63
2022/05/26 10:50:39;;;;;;;9.30;1.90;;;21.50;1.00;;;;;;4995562;28;20206;-62
2022/05/26 10:53:15;;;;;;;1.08;0.90;;;20.50;1.00;;;;;;4996010;28;20194;-63
2022/05/26 10:55:50;;;;;;;2.40;2.20;;;20.20;1.00;;;;;;4995948;28;20546;-62
2022/05/26 10:58:23;;;;;;;4.63;1.92;;;19.90;1.00;;;;;;4995203;28;20210;-61
2022/05/26 11:00:55;;;;;;;1.10;0.82;;;20.60;1.00;;;;;;4995855;28;20186;-63
2022/05/26 11:03:28;;;;;;;4.75;1.20;;;21.10;1.00;;;;;;4995659;28;20203;-63
2022/05/26 11:06:02;;;;;;;2.03;1.83;;;22.10;1.00;;;;;;5000997;28;20240;-63
2022/05/26 11:08:38;;;;;;;3.42;1.70;;;21.90;1.00;;;;;;4996257;28;20185;-62
2022/05/26 11:11:14;;;;;;;2.28;1.70;;;21.60;1.00;;;;;;4995178;28;20362;-63
2022/05/26 11:13:52;;;;;;;3.88;2.17;;;21.20;1.00;;;;;;4995587;28;20201;-62
2022/05/26 11:19:31;;;;;;;1.25;1.15;;;20.70;1.00;;;;;;4995392;28;20256;-62
2022/05/26 11:21:59;;;;;;;4.15;1.73;;;21.40;1.00;;;;;;4995609;28;20256;-62
2022/05/26 11:24:26;;;;;;;3.60;1.77;;;22.30;1.00;;;;;;4994912;28;20686;-63
2022/05/26 11:27:01;;;;;;;2.40;1.85;;;21.90;1.00;;;;;;4994862;28;20217;-62
2022/05/26 11:29:32;;;;;;;2.83;1.60;;;22.20;1.00;;;;;;4995141;28;20185;-61
2022/05/26 11:37:58;;;;;;;1.45;1.35;;;20.40;1.00;;;;;;4994959;28;20182;-59
2022/05/26 11:40:33;;;;;;;1.05;0.82;;;20.10;1.00;;;;;;4995290;28;20654;-61
2022/05/26 11:43:02;;;;;;;1.65;1.13;;;20.40;1.00;;;;;;4995112;28;20195;-62
2022/05/26 11:45:33;;;;;;;3.88;1.70;;;20.70;1.00;;;;;;4994579;28;20209;-61
2022/05/26 11:48:02;;;;;;;1.27;1.17;;;21.20;1.00;;;;;;4995119;28;20198;-61
2022/05/26 11:50:47;;;;;;;0.43;0.43;;;21.00;1.00;;;;;;4994961;28;20201;-62
2022/05/26 11:53:36;;;;;;;1.75;1.30;;;20.70;1.00;;;;;;4994941;28;20691;-61
2022/05/26 11:56:04;;;;;;;2.13;0.90;;;20.80;1.00;;;;;;4994243;28;20647;-62
2022/05/26 11:58:41;;;;;;;0.55;0.50;;;21.50;1.00;;;;;;4994076;28;20283;-63
2022/05/26 12:01:34;;;;;;;1.55;1.45;;;22.50;1.00;;;;;;4994577;28;20597;-62
2022/05/26 12:04:07;;;;;;;0.88;0.88;;;22.80;1.00;;;;;;4993761;28;20257;-61
2022/05/26 12:06:40;;;;;;;0.93;0.70;;;22.80;1.00;;;;;;4995756;28;20185;-62
2022/05/26 12:09:12;;;;;;;2.13;1.63;;;22.50;1.00;;;;;;5002394;28;20249;-62
2022/05/26 12:11:55;;;;;;;1.98;1.05;;;22.30;1.00;;;;;;5003900;28;20251;-62
2022/05/26 12:14:27;;;;;;;2.25;1.33;;;22.50;1.00;;;;;;5012451;28;20646;-61
2022/05/26 12:17:29;;;;;;;0.30;0.30;;;21.50;1.00;;;;;;5005832;28;20194;-61
2022/05/26 12:19:57;;;;;;;2.05;1.20;;;22.20;1.00;;;;;;5007573;28;20248;-61
2022/05/26 12:22:27;;;;;;;1.23;0.90;;;22.90;1.00;;;;;;5010092;28;20228;-62
2022/05/26 12:25:22;;;;;;;2.80;1.40;;;22.70;1.00;;;;;;5012095;28;20239;-62
2022/05/26 12:28:01;;;;;;;1.35;1.10;;;22.80;1.00;;;;;;5013190;28;20181;-61
2022/05/26 12:31:13;;;;;;;2.88;1.10;;;22.90;1.00;;;;;;5010172;28;20255;-61
2022/05/26 12:34:02;;;;;;;1.05;0.75;;;22.80;1.00;;;;;;5012257;28;20240;-61
2022/05/26 12:36:50;;;;;;;1.63;1.52;;;22.30;1.00;;;;;;5012972;28;20196;-62
2022/05/26 12:39:51;;;;;;;2.42;1.38;;;21.90;1.00;;;;;;5013421;28;20217;-61
2022/05/26 12:42:30;;;;;;;5.22;1.27;;;21.70;1.00;;;;;;5012955;28;20191;-62
2022/05/26 12:45:16;;;;;;;1.58;1.13;;;21.70;1.00;;;;;;5012475;28;20197;-61
2022/05/26 12:48:05;;;;;;;1.15;1.05;;;21.60;1.00;;;;;;5012783;28;20196;-62
2022/05/26 12:50:39;;;;;;;0.80;0.80;;;21.60;1.00;;;;;;5013096;28;20287;-62
2022/05/26 12:53:13;;;;;;;1.02;0.90;;;21.80;1.00;;;;;;5012611;28;20645;-62
2022/05/26 12:55:47;;;;;;;1.52;0.90;;;21.60;1.00;;;;;;5004633;28;20190;-61
2022/05/26 12:58:17;;;;;;;1.77;1.10;;;21.50;1.00;;;;;;4993351;28;20527;-61
2022/05/26 13:00:46;;;;;;;2.60;1.67;;;21.40;1.00;;;;;;4992318;28;20197;-62
2022/05/26 13:03:23;;;;;;;1.85;1.00;;;21.60;1.00;;;;;;5011438;28;20223;-61
2022/05/26 13:05:58;;;;;;;4.05;1.38;;;21.60;1.00;;;;;;5013000;28;20609;-61
2022/05/26 13:08:27;;;;;;;5.72;1.75;;;22.20;1.00;;;;;;5012115;28;20275;-62
2022/05/26 13:10:57;;;;;;;1.88;0.95;;;22.30;1.00;;;;;;5011946;28;20229;-62
2022/05/26 13:13:31;;;;;;;1.65;1.55;;;21.90;1.00;;;;;;5012105;28;20193;-62
2022/05/26 13:16:25;;;;;;;1.35;1.25;;;21.50;1.00;;;;;;5012414;28;20197;-61
2022/05/26 13:18:53;;;;;;;0.80;0.80;;;21.30;1.00;;;;;;5012692;28;20212;-61
2022/05/26 13:21:24;;;;;;;1.60;1.30;;;21.10;1.00;;;;;;5012445;28;20563;-60
2022/05/26 13:23:52;;;;;;;1.17;1.02;;;20.90;1.00;;;;;;5012960;28;20244;-59
2022/05/26 13:26:20;;;;;;;2.15;1.30;;;21.20;1.00;;;;;;5013064;28;20259;-60
2022/05/26 13:28:50;;;;;;;1.27;1.17;;;21.60;1.00;;;;;;5012945;28;20201;-60
2022/05/26 13:34:05;;;;;;;0.88;0.85;;;21.70;1.00;;;;;;5012302;28;20639;-59
2022/05/26 13:36:36;;;;;;;1.40;1.00;;;21.60;1.00;;;;;;5012609;28;20200;-59
2022/05/26 13:39:09;;;;;;;0.73;0.73;;;21.40;1.00;;;;;;5012284;28;20235;-61
2022/05/26 13:41:38;;;;;;;0.77;0.77;;;21.30;1.00;;;;;;5012101;28;20205;-60
2022/05/26 13:44:08;;;;;;;1.40;0.80;;;21.60;1.00;;;;;;5012565;28;20560;-60
2022/05/26 13:46:38;;;;;;;2.88;1.50;;;21.60;1.00;;;;;;5011943;28;20200;-61
2022/05/26 13:49:20;;;;;;;1.00;0.80;;;21.90;1.00;;;;;;5012191;28;20197;-60
2022/05/26 13:51:50;;;;;;;1.95;1.08;;;22.00;1.00;;;;;;5012104;28;20587;-61
2022/05/26 13:54:32;;;;;;;3.08;1.77;;;21.70;1.00;;;;;;5012095;28;20546;-61